Upstream stations:
Downstream station:
SHEF ID: WANO2 Cimarron River near Waynoka, OK
STATION TYPE:
Regulating: Stage = 9.00, Flow = 4032
PRECIP STAGE RIV-FLOW BAT-LOAD
in ft cfs volt
Ccp-Rev Ccp-Rev Ccp-Rev Ccp-Rev
(US/Central)
02/08 00:00 0.00 5.68 43 12.73
02/08 01:00 0.00 5.68 43 12.73
02/08 02:00 0.00 5.68 43 12.65
02/08 03:00 0.00 5.69 45 12.65
02/08 04:00 0.00 5.68 43 12.65
02/08 05:00 0.00 5.69 45 12.65
02/08 06:00 0.00 5.69 45 12.65
02/08 07:00 0.00 5.70 46 12.57
02/08 08:00 0.00 5.70 46 12.57
02/08 09:00 0.00 5.70 46 12.89
02/08 10:00 0.00 5.70 46 13.60
02/08 11:00 0.00 5.69 45 14.00
02/08 12:00 0.00 5.71 48 13.76
02/08 13:00 0.00 5.70 46 13.68
02/08 14:00 0.00 5.67 42 13.60
02/08 15:00 0.00 5.67 42 13.60
02/08 16:00 0.00 5.68 43 13.60
02/08 17:00 0.00 5.68 43 13.60
02/08 18:00 0.00 5.69 45 13.44
02/08 19:00 0.00 5.68 43 13.13
02/08 20:00 0.00 5.67 42 12.97
02/08 21:00 0.00 5.67 42 12.89
02/08 22:00 0.00 5.67 42 12.81
02/08 23:00 0.00 5.67 42 12.81